.
WxDataArchive / Data Records for 2014-12-20
2014-12-19 December 2014 2014-12-21

Data Records for Saturday, 20 December 2014

Time	Temp	Chill	HIndex	Humid	Dewpt	 Wind 	HiWind	WindDir	Rain 	Barom
-----	----	-----	------	-----	-----	------	------	-------	-----	-----
00:00	22.7	22.7	22.7	89	20.0	0	0	---	0.00	30.288 
00:05	22.7	22.7	22.7	89	20.0	0	0	---	0.00	30.288 
00:10	22.7	22.7	22.7	89	20.0	0	0	---	0.00	30.288 
00:15	22.7	22.7	22.7	89	20.0	0	0	---	0.00	30.286 
00:20	22.7	22.7	22.7	89	20.0	0	0	---	0.00	30.286 
00:25	22.7	22.7	22.7	89	20.0	0	0	---	0.00	30.286 
00:30	22.7	22.7	22.7	89	20.0	0	0	---	0.00	30.282 
00:35	22.9	22.9	22.9	90	20.4	0	0	---	0.00	30.282 
00:40	23.0	23.0	23.0	90	20.5	0	0	---	0.00	30.282 
00:45	23.2	23.2	23.2	90	20.7	0	0	---	0.00	30.280 
00:50	23.5	23.5	23.5	90	21.0	0	0	---	0.00	30.280 
00:55	23.6	23.6	23.6	90	21.1	0	0	---	0.00	30.280 
01:00	23.8	23.8	23.8	90	21.3	0	0	---	0.00	30.283 
01:05	24.1	24.1	24.1	91	21.9	0	0	---	0.00	30.283 
01:10	24.2	24.2	24.2	90	21.7	0	0	---	0.00	30.283 
01:15	24.4	24.4	24.4	90	21.9	0	0	---	0.00	30.282 
01:20	24.5	24.5	24.5	91	22.3	0	0	---	0.00	30.282 
01:25	24.7	24.7	24.7	91	22.5	0	0	---	0.00	30.282 
01:30	24.8	24.8	24.8	90	22.3	0	0	---	0.00	30.271 
01:35	24.8	24.8	24.8	90	22.3	0	0	---	0.00	30.271 
01:40	25.0	25.0	25.0	90	22.5	0	0	---	0.00	30.271 
01:45	25.0	25.0	25.0	91	22.8	0	0	---	0.00	30.272 
01:50	25.0	25.0	25.0	91	22.8	0	0	---	0.00	30.272 
01:55	25.1	25.1	25.1	90	22.6	0	0	---	0.00	30.272 
02:00	25.1	25.1	25.1	91	22.9	0	0	---	0.00	30.279 
02:05	25.1	25.1	25.1	91	22.9	0	0	---	0.00	30.279 
02:10	25.3	25.3	25.3	91	23.0	0	0	---	0.00	30.279 
02:15	25.3	25.3	25.3	90	22.8	0	0	---	0.00	30.283 
02:20	25.3	25.3	25.3	90	22.8	0	0	---	0.00	30.283 
02:25	25.3	25.3	25.3	90	22.8	0	0	---	0.00	30.283 
02:30	25.3	25.3	25.3	90	22.8	0	0	---	0.00	30.289 
02:35	25.3	25.3	25.3	90	22.8	0	0	---	0.00	30.289 
02:40	25.3	25.3	25.3	90	22.8	0	0	---	0.00	30.289 
02:45	25.1	25.1	25.1	90	22.6	0	0	---	0.00	30.295 
02:50	25.1	25.1	25.1	90	22.6	0	0	---	0.00	30.295 
02:55	25.1	25.1	25.1	90	22.6	0	0	---	0.00	30.295 
03:00	25.0	25.0	25.0	90	22.5	0	0	---	0.00	30.299 
03:05	24.8	24.8	24.8	90	22.3	0	0	---	0.00	30.299 
03:10	24.8	24.8	24.8	90	22.3	0	0	---	0.00	30.299 
03:15	24.8	24.8	24.8	90	22.3	0	0	---	0.00	30.300 
03:20	24.7	24.7	24.7	90	22.2	0	0	---	0.00	30.300 
03:25	24.7	24.7	24.7	90	22.2	0	0	---	0.00	30.300 
03:30	24.7	24.7	24.7	90	22.2	0	0	---	0.00	30.302 
03:35	24.5	24.5	24.5	90	22.0	0	0	---	0.00	30.302 
03:40	24.5	24.5	24.5	90	22.0	0	0	---	0.00	30.302 
03:45	24.4	24.4	24.4	90	21.9	0	0	---	0.00	30.301 
03:50	24.2	24.2	24.2	90	21.7	0	0	---	0.00	30.301 
03:55	24.2	24.2	24.2	90	21.7	0	0	---	0.00	30.301 
04:00	24.1	24.1	24.1	90	21.6	0	0	---	0.00	30.300 
04:05	24.1	24.1	24.1	90	21.6	0	0	---	0.00	30.300 
04:10	23.9	23.9	23.9	90	21.4	0	0	---	0.00	30.300 
04:15	23.8	23.8	23.8	90	21.3	0	0	---	0.00	30.301 
04:20	23.8	23.8	23.8	90	21.3	0	0	---	0.00	30.301 
04:25	23.6	23.6	23.6	90	21.1	0	0	---	0.00	30.301 
04:30	23.6	23.6	23.6	90	21.1	0	0	---	0.00	30.295 
04:35	23.5	23.5	23.5	90	21.0	0	0	---	0.00	30.295 
04:40	23.5	23.5	23.5	90	21.0	0	0	---	0.00	30.295 
04:45	23.5	23.5	23.5	90	21.0	0	0	---	0.00	30.289 
04:50	23.5	23.5	23.5	90	21.0	0	0	---	0.00	30.289 
04:55	23.6	23.6	23.6	90	21.1	0	0	---	0.00	30.289 
05:00	23.6	23.6	23.6	90	21.1	0	0	---	0.00	30.287 
05:05	23.8	23.8	23.8	90	21.3	0	0	---	0.00	30.287 
05:10	23.8	23.8	23.8	90	21.3	0	0	---	0.00	30.287 
05:15	23.9	23.9	23.9	91	21.7	0	0	---	0.00	30.290 
05:20	24.1	24.1	24.1	91	21.9	0	0	---	0.00	30.290 
05:25	24.1	24.1	24.1	91	21.9	0	0	---	0.00	30.290 
05:30	24.2	24.2	24.2	91	22.0	0	0	---	0.00	30.289 
05:35	24.4	24.4	24.4	91	22.2	0	0	---	0.00	30.289 
05:40	24.4	24.4	24.4	91	22.2	0	0	---	0.00	30.289 
05:45	24.4	24.4	24.4	91	22.2	0	0	---	0.00	30.289 
05:50	24.4	24.4	24.4	91	22.2	0	0	---	0.00	30.289 
05:55	24.4	24.4	24.4	91	22.2	0	0	---	0.00	30.289 
06:00	24.4	24.4	24.4	91	22.2	0	0	---	0.00	30.288 
06:05	24.4	24.4	24.4	91	22.2	0	0	---	0.00	30.288 
06:10	24.4	24.4	24.4	91	22.2	0	0	---	0.00	30.288 
06:15	24.5	24.5	24.5	91	22.3	0	0	---	0.00	30.289 
06:20	24.5	24.5	24.5	91	22.3	0	0	---	0.00	30.289 
06:25	24.5	24.5	24.5	91	22.3	0	0	---	0.00	30.289 
06:30	24.7	24.7	24.7	91	22.5	0	0	---	0.00	30.291 
06:35	24.7	24.7	24.7	91	22.5	0	0	---	0.00	30.291 
06:40	24.8	24.8	24.8	91	22.6	0	0	---	0.00	30.291 
06:45	24.8	24.8	24.8	91	22.6	0	1	112	0.00	30.290 
06:50	25.0	25.0	25.0	91	22.8	0	0	---	0.00	30.290 
06:55	25.0	25.0	25.0	91	22.8	0	1	112	0.00	30.290 
07:00	25.0	25.0	25.0	90	22.5	0	1	112	0.00	30.292 
07:05	25.1	25.1	25.1	90	22.6	0	2	112	0.00	30.292 
07:10	25.1	25.1	25.1	90	22.6	0	2	112	0.00	30.292 
07:15	25.1	25.1	25.1	90	22.6	0	0	---	0.00	30.295 
07:20	25.1	25.1	25.1	90	22.6	0	0	---	0.00	30.295 
07:25	25.1	25.1	25.1	90	22.6	0	0	---	0.00	30.295 
07:30	25.0	25.0	25.0	90	22.5	0	0	---	0.00	30.301 
07:35	24.8	24.8	24.8	89	22.0	0	0	---	0.00	30.301 
07:40	24.8	24.8	24.8	89	22.0	0	0	---	0.00	30.301 
07:45	24.8	24.8	24.8	90	22.3	0	0	---	0.00	30.307 
07:50	24.8	24.8	24.8	90	22.3	0	0	---	0.00	30.307 
07:55	24.8	24.8	24.8	90	22.3	0	0	---	0.00	30.307 
08:00	24.8	24.8	24.8	90	22.3	0	0	---	0.00	30.317 
08:05	24.8	24.8	24.8	90	22.3	0	0	---	0.00	30.317 
08:10	25.0	25.0	25.0	90	22.5	0	0	---	0.00	30.317 
08:15	25.1	25.1	25.1	90	22.6	0	0	---	0.00	30.315 
08:20	25.1	25.1	25.1	90	22.6	0	0	---	0.00	30.315 
08:25	25.3	25.3	25.3	90	22.8	0	0	---	0.00	30.315 
08:30	25.3	25.3	25.3	90	22.8	0	0	---	0.00	30.317 
08:35	25.4	25.4	25.4	90	22.9	0	0	---	0.00	30.317 
08:40	25.4	25.4	25.4	90	22.9	0	0	---	0.00	30.317 
08:45	25.6	25.6	25.6	90	23.1	0	0	---	0.00	30.317 
08:50	25.6	25.6	25.6	90	23.1	0	0	---	0.00	30.317 
08:55	25.7	25.7	25.7	90	23.2	0	0	---	0.00	30.317 
09:00	26.0	26.0	26.0	90	23.5	0	1	112	0.00	30.308 
09:05	26.1	26.1	26.1	90	23.6	0	1	112	0.00	30.308 
09:10	26.3	26.3	26.3	89	23.5	0	0	---	0.00	30.308 
09:15	26.6	26.6	26.6	89	23.8	0	1	112	0.00	30.315 
09:20	26.7	26.7	26.7	89	23.9	0	1	112	0.00	30.315 
09:25	26.9	26.9	26.9	89	24.1	0	0	---	0.00	30.315 
09:30	27.0	27.0	27.0	88	23.9	0	1	112	0.00	30.315 
09:35	27.2	27.2	27.2	88	24.1	0	0	---	0.00	30.315 
09:40	27.2	27.2	27.2	87	23.9	0	1	112	0.00	30.315 
09:45	27.3	27.3	27.3	86	23.7	0	1	112	0.00	30.311 
09:50	27.5	27.5	27.5	86	23.9	0	0	---	0.00	30.311 
09:55	27.6	27.6	27.6	85	23.7	0	1	112	0.00	30.311 
10:00	27.9	27.9	27.9	85	24.0	0	1	112	0.00	30.318 
10:05	28.1	28.1	28.1	85	24.2	0	1	112	0.00	30.318 
10:10	28.2	28.2	28.2	84	24.0	0	2	112	0.00	30.318 
10:15	28.4	28.4	28.4	84	24.2	0	1	112	0.00	30.317 
10:20	28.7	28.7	28.7	84	24.5	0	1	112	0.00	30.317 
10:25	28.8	28.8	28.8	84	24.6	0	2	112	0.00	30.317 
10:30	29.0	29.0	29.0	84	24.8	0	0	---	0.00	30.317 
10:35	29.3	29.3	29.3	84	25.1	0	1	112	0.00	30.317 
10:40	29.4	29.4	29.4	83	24.9	0	0	---	0.00	30.317 
10:45	29.5	29.5	29.5	83	25.0	0	0	---	0.00	30.317 
10:50	29.7	29.7	29.7	83	25.2	0	1	112	0.00	30.317 
10:55	29.8	29.8	29.8	82	25.0	0	1	112	0.00	30.317 
11:00	30.0	30.0	30.0	82	25.2	0	1	112	0.00	30.312 
11:05	30.1	30.1	30.1	82	25.3	0	1	112	0.00	30.312 
11:10	30.3	30.3	30.3	81	25.2	0	1	112	0.00	30.312 
11:15	30.4	30.4	30.4	80	25.0	0	1	112	0.00	30.306 
11:20	30.4	30.4	30.4	80	25.0	0	1	112	0.00	30.306 
11:25	30.6	30.6	30.6	80	25.2	0	2	112	0.00	30.306 
11:30	30.6	30.6	30.6	79	24.9	0	1	112	0.00	30.301 
11:35	30.7	30.7	30.7	79	25.0	0	2	112	0.00	30.301 
11:40	30.9	30.9	30.9	79	25.2	0	0	---	0.00	30.301 
11:45	31.0	31.0	31.0	78	25.0	0	1	112	0.00	30.299 
11:50	31.2	31.2	31.2	78	25.2	0	0	---	0.00	30.299 
11:55	31.3	31.3	31.3	78	25.3	0	2	112	0.00	30.299 
12:00	31.6	31.6	31.6	78	25.5	0	1	112	0.00	30.297 
12:05	31.8	31.8	31.8	77	25.4	0	1	112	0.00	30.297 
12:10	32.2	32.2	32.2	77	25.8	0	1	112	0.00	30.297 
12:15	32.5	32.5	32.5	77	26.1	0	1	112	0.00	30.285 
12:20	32.7	32.7	32.7	74	25.3	0	1	112	0.00	30.285 
12:25	32.5	32.5	32.5	74	25.2	0	1	112	0.00	30.285 
12:30	32.7	32.7	32.7	73	25.0	0	1	112	0.00	30.284 
12:35	32.8	32.8	32.8	73	25.1	0	1	112	0.00	30.284 
12:40	32.9	32.9	32.9	72	24.9	0	1	112	0.00	30.284 
12:45	33.1	33.1	33.1	71	24.7	0	2	112	0.00	30.281 
12:50	33.2	33.2	33.2	70	24.5	0	1	112	0.00	30.281 
12:55	33.4	33.4	33.4	69	24.3	0	1	112	0.00	30.281 
13:00	33.4	33.4	33.4	69	24.3	0	1	112	0.00	30.283 
13:05	33.2	33.2	33.2	68	23.8	0	1	112	0.00	30.283 
13:10	33.2	33.2	33.2	68	23.8	0	1	112	0.00	30.283 
13:15	33.2	33.2	33.2	66	23.1	0	1	112	0.00	30.276 
13:20	33.2	33.2	33.2	66	23.1	0	1	112	0.00	30.276 
13:25	33.1	33.1	33.1	65	22.6	0	2	112	0.00	30.276 
13:30	32.9	32.9	32.9	66	22.8	0	4	22	0.00	30.269 
13:35	32.9	32.9	32.9	66	22.8	0	1	22	0.00	30.269 
13:40	32.9	32.9	32.9	65	22.4	0	1	22	0.00	30.269 
13:45	32.9	32.9	32.9	65	22.4	0	1	22	0.00	30.266 
13:50	33.1	33.1	33.1	65	22.6	0	2	22	0.00	30.266 
13:55	32.9	32.9	32.9	65	22.4	0	2	292	0.00	30.266 
14:00	32.9	32.9	32.9	65	22.4	0	1	292	0.00	30.265 
14:05	32.9	32.9	32.9	65	22.4	0	2	292	0.00	30.265 
14:10	32.9	32.9	32.9	65	22.4	0	2	292	0.00	30.265 
14:15	32.9	32.9	32.9	65	22.4	0	3	292	0.00	30.262 
14:20	32.9	32.9	32.9	64	22.1	0	2	292	0.00	30.262 
14:25	32.9	32.9	32.9	65	22.4	0	2	292	0.00	30.262 
14:30	32.9	32.9	32.9	65	22.4	0	3	292	0.00	30.259 
14:35	32.9	32.9	32.9	65	22.4	0	1	292	0.00	30.259 
14:40	32.9	32.9	32.9	66	22.8	0	1	292	0.00	30.259 
14:45	33.1	33.1	33.1	65	22.6	0	2	292	0.00	30.253 
14:50	32.9	32.9	32.9	64	22.1	0	1	292	0.00	30.253 
14:55	32.9	32.9	32.9	65	22.4	0	1	292	0.00	30.253 
15:00	32.9	32.9	32.9	64	22.1	0	1	292	0.00	30.254 
15:05	32.9	32.9	32.9	64	22.1	0	1	292	0.00	30.254 
15:10	32.9	32.9	32.9	64	22.1	0	1	292	0.00	30.254 
15:15	32.9	32.9	32.9	63	21.7	0	1	292	0.00	30.259 
15:20	32.9	32.9	32.9	64	22.1	0	1	292	0.00	30.259 
15:25	32.9	32.9	32.9	64	22.1	0	2	292	0.00	30.259 
15:30	32.9	32.9	32.9	63	21.7	0	2	292	0.00	30.258 
15:35	32.9	32.9	32.9	63	21.7	0	1	292	0.00	30.258 
15:40	32.9	32.9	32.9	64	22.1	0	1	292	0.00	30.258 
15:45	32.9	32.9	32.9	64	22.1	0	1	292	0.00	30.261 
15:50	32.9	32.9	32.9	64	22.1	0	1	292	0.00	30.261 
15:55	32.9	32.9	32.9	65	22.4	0	1	292	0.00	30.261 
16:00	32.8	32.8	32.8	65	22.3	0	1	292	0.00	30.265 
16:05	32.8	32.8	32.8	65	22.3	0	0	---	0.00	30.265 
16:10	32.8	32.8	32.8	66	22.7	0	1	292	0.00	30.265 
16:15	32.8	32.8	32.8	66	22.7	0	1	292	0.00	30.268 
16:20	32.7	32.7	32.7	67	23.0	0	2	292	0.00	30.268 
16:25	32.7	32.7	32.7	67	23.0	0	1	292	0.00	30.268 
16:30	32.5	32.5	32.5	68	23.1	0	1	292	0.00	30.277 
16:35	32.4	32.4	32.4	69	23.4	0	2	292	0.00	30.277 
16:40	32.4	32.4	32.4	69	23.4	0	0	---	0.00	30.277 
16:45	32.2	32.2	32.2	70	23.5	0	1	292	0.00	30.282 
16:50	32.2	32.2	32.2	70	23.5	0	1	292	0.00	30.282 
16:55	32.2	32.2	32.2	71	23.9	0	1	292	0.00	30.282 
17:00	32.2	32.2	32.2	72	24.2	0	1	292	0.00	30.282 
17:05	32.1	32.1	32.1	73	24.4	0	1	292	0.00	30.282 
17:10	31.9	31.9	31.9	74	24.6	0	1	292	0.00	30.282 
17:15	31.8	31.8	31.8	75	24.8	0	0	---	0.00	30.282 
17:20	31.6	31.6	31.6	75	24.6	0	1	292	0.00	30.282 
17:25	31.5	31.5	31.5	76	24.8	0	0	---	0.00	30.282 
17:30	31.5	31.5	31.5	77	25.1	0	1	292	0.00	30.283 
17:35	31.5	31.5	31.5	78	25.4	0	0	---	0.00	30.283 
17:40	31.3	31.3	31.3	79	25.6	0	0	---	0.00	30.283 
17:45	31.3	31.3	31.3	79	25.6	0	0	---	0.00	30.289 
17:50	31.3	31.3	31.3	80	25.9	0	0	---	0.00	30.289 
17:55	31.3	31.3	31.3	80	25.9	0	0	---	0.00	30.289 
18:00	31.2	31.2	31.2	80	25.8	0	0	---	0.00	30.297 
18:05	31.2	31.2	31.2	80	25.8	0	0	---	0.00	30.297 
18:10	31.2	31.2	31.2	81	26.1	0	1	292	0.00	30.297 
18:15	31.2	31.2	31.2	81	26.1	0	0	---	0.00	30.296 
18:20	31.2	31.2	31.2	81	26.1	0	0	---	0.00	30.296 
18:25	31.2	31.2	31.2	81	26.1	0	0	---	0.00	30.296 
18:30	31.0	31.0	31.0	81	25.9	0	0	---	0.00	30.293 
18:35	31.0	31.0	31.0	81	25.9	0	0	---	0.00	30.293 
18:40	31.0	31.0	31.0	81	25.9	0	0	---	0.00	30.293 
18:45	31.0	31.0	31.0	81	25.9	0	0	---	0.00	30.294 
18:50	31.0	31.0	31.0	81	25.9	0	0	---	0.00	30.294 
18:55	31.0	31.0	31.0	81	25.9	0	0	---	0.00	30.294 
19:00	31.0	31.0	31.0	81	25.9	0	0	---	0.00	30.297 
19:05	31.0	31.0	31.0	81	25.9	0	0	---	0.00	30.297 
19:10	31.0	31.0	31.0	81	25.9	0	0	---	0.00	30.297 
19:15	31.0	31.0	31.0	82	26.2	0	0	---	0.00	30.301 
19:20	31.0	31.0	31.0	82	26.2	0	0	---	0.00	30.301 
19:25	31.2	31.2	31.2	82	26.4	0	0	---	0.00	30.301 
19:30	31.2	31.2	31.2	82	26.4	0	0	---	0.00	30.302 
19:35	31.2	31.2	31.2	82	26.4	0	0	---	0.00	30.302 
19:40	31.2	31.2	31.2	82	26.4	0	0	---	0.00	30.302 
19:45	31.2	31.2	31.2	82	26.4	0	0	---	0.00	30.308 
19:50	31.0	31.0	31.0	82	26.2	0	0	---	0.00	30.308 
19:55	31.0	31.0	31.0	82	26.2	0	0	---	0.00	30.308 
20:00	31.0	31.0	31.0	82	26.2	0	0	---	0.00	30.310 
20:05	31.0	31.0	31.0	82	26.2	0	0	---	0.00	30.310 
20:10	31.0	31.0	31.0	82	26.2	0	0	---	0.00	30.310 
20:15	31.0	31.0	31.0	82	26.2	0	0	---	0.00	30.302 
20:20	31.0	31.0	31.0	82	26.2	0	0	---	0.00	30.302 
20:25	31.0	31.0	31.0	82	26.2	0	0	---	0.00	30.302 
20:30	31.0	31.0	31.0	82	26.2	0	0	---	0.00	30.299 
20:35	31.0	31.0	31.0	82	26.2	0	0	---	0.00	30.299 
20:40	31.0	31.0	31.0	82	26.2	0	0	---	0.00	30.299 
20:45	31.0	31.0	31.0	82	26.2	0	0	---	0.00	30.299 
20:50	31.0	31.0	31.0	82	26.2	0	0	---	0.00	30.299 
20:55	31.0	31.0	31.0	82	26.2	0	0	---	0.00	30.299 
21:00	31.0	31.0	31.0	82	26.2	0	0	---	0.00	30.299 
21:05	31.0	31.0	31.0	82	26.2	0	0	---	0.00	30.299 
21:10	31.0	31.0	31.0	82	26.2	0	0	---	0.00	30.299 
21:15	31.0	31.0	31.0	82	26.2	0	0	---	0.00	30.291 
21:20	31.0	31.0	31.0	82	26.2	0	0	---	0.00	30.291 
21:25	31.0	31.0	31.0	82	26.2	0	0	---	0.00	30.291 
21:30	30.9	30.9	30.9	82	26.1	0	0	---	0.00	30.297 
21:35	30.9	30.9	30.9	82	26.1	0	0	---	0.00	30.297 
21:40	30.9	30.9	30.9	82	26.1	0	0	---	0.00	30.297 
21:45	30.9	30.9	30.9	82	26.1	0	0	---	0.00	30.296 
21:50	30.9	30.9	30.9	83	26.4	0	0	---	0.00	30.296 
21:55	30.9	30.9	30.9	83	26.4	0	0	---	0.00	30.296 
22:00	30.9	30.9	30.9	83	26.4	0	0	---	0.00	30.293 
22:05	30.9	30.9	30.9	83	26.4	0	0	---	0.00	30.293 
22:10	30.9	30.9	30.9	83	26.4	0	0	---	0.00	30.293 
22:15	30.9	30.9	30.9	83	26.4	0	0	---	0.00	30.287 
22:20	30.9	30.9	30.9	83	26.4	0	0	---	0.00	30.287 
22:25	30.9	30.9	30.9	83	26.4	0	0	---	0.00	30.287 
22:30	30.9	30.9	30.9	83	26.4	0	0	---	0.00	30.288 
22:35	30.7	30.7	30.7	83	26.2	0	0	---	0.00	30.288 
22:40	30.7	30.7	30.7	83	26.2	0	0	---	0.00	30.288 
22:45	30.7	30.7	30.7	83	26.2	0	0	---	0.00	30.291 
22:50	30.7	30.7	30.7	83	26.2	0	0	---	0.00	30.291 
22:55	30.7	30.7	30.7	83	26.2	0	0	---	0.00	30.291 
23:00	30.6	30.6	30.6	83	26.1	0	0	---	0.00	30.293 
23:05	30.6	30.6	30.6	83	26.1	0	0	---	0.00	30.293 
23:10	30.6	30.6	30.6	83	26.1	0	0	---	0.00	30.293 
23:15	30.6	30.6	30.6	84	26.4	0	0	---	0.00	30.293 
23:20	30.6	30.6	30.6	84	26.4	0	0	---	0.00	30.293 
23:25	30.4	30.4	30.4	84	26.2	0	0	---	0.00	30.293 
23:30	30.4	30.4	30.4	84	26.2	0	0	---	0.00	30.293 
23:35	30.4	30.4	30.4	84	26.2	0	0	---	0.00	30.293 
23:40	30.4	30.4	30.4	84	26.2	0	0	---	0.00	30.293 
23:45	30.4	30.4	30.4	84	26.2	0	0	---	0.00	30.293 
23:50	30.4	30.4	30.4	84	26.2	0	0	---	0.00	30.293 
23:55	30.4	30.4	30.4	84	26.2	0	0	---	0.00	30.293 

CoCoRaHS
IN-AL-39
A2 Web Hosting
Creative Commons License
GoDaddy
search engine by freefind advanced

loaded 2018-11-13 23:56:45 • last modified 2010-11-18 10:43:29
Privacy PolicyDisclaimer
• wx.awcolley.com is powered by PmWiki v.2002016 •
• all content (unless otherwise noted) © 2018 A W Colley